sensor_id;sensor_type;location;lat;lon;timestamp;P1;durP1;ratioP1;P2;durP2;ratioP2
56039;SDS011;43937;41.366;2.072;2023-12-29T00:01:16;19.73;;;11.20;;
56039;SDS011;43937;41.366;2.072;2023-12-29T00:03:43;19.95;;;10.95;;
56039;SDS011;43937;41.366;2.072;2023-12-29T00:06:11;20.05;;;11.90;;
56039;SDS011;43937;41.366;2.072;2023-12-29T00:08:37;18.50;;;11.30;;
56039;SDS011;43937;41.366;2.072;2023-12-29T00:11:02;20.73;;;12.15;;
56039;SDS011;43937;41.366;2.072;2023-12-29T00:13:28;20.00;;;11.10;;
56039;SDS011;43937;41.366;2.072;2023-12-29T00:15:54;17.38;;;10.90;;
56039;SDS011;43937;41.366;2.072;2023-12-29T00:18:20;20.45;;;12.93;;
56039;SDS011;43937;41.366;2.072;2023-12-29T00:20:45;16.00;;;11.27;;
56039;SDS011;43937;41.366;2.072;2023-12-29T00:23:11;21.52;;;11.30;;
56039;SDS011;43937;41.366;2.072;2023-12-29T00:25:37;19.00;;;11.65;;
56039;SDS011;43937;41.366;2.072;2023-12-29T00:28:05;21.42;;;11.10;;
56039;SDS011;43937;41.366;2.072;2023-12-29T00:30:31;18.77;;;11.63;;
56039;SDS011;43937;41.366;2.072;2023-12-29T00:32:56;19.55;;;12.35;;
56039;SDS011;43937;41.366;2.072;2023-12-29T00:35:22;22.58;;;12.25;;
56039;SDS011;43937;41.366;2.072;2023-12-29T00:37:47;20.05;;;12.15;;
56039;SDS011;43937;41.366;2.072;2023-12-29T00:40:14;18.50;;;12.27;;
56039;SDS011;43937;41.366;2.072;2023-12-29T00:42:40;18.48;;;12.05;;
56039;SDS011;43937;41.366;2.072;2023-12-29T00:45:05;18.67;;;11.52;;
56039;SDS011;43937;41.366;2.072;2023-12-29T00:47:34;22.45;;;10.98;;
56039;SDS011;43937;41.366;2.072;2023-12-29T00:50:00;16.83;;;11.15;;
56039;SDS011;43937;41.366;2.072;2023-12-29T00:52:26;14.57;;;10.23;;
56039;SDS011;43937;41.366;2.072;2023-12-29T00:54:52;14.30;;;10.02;;
56039;SDS011;43937;41.366;2.072;2023-12-29T00:57:18;15.18;;;10.88;;
56039;SDS011;43937;41.366;2.072;2023-12-29T00:59:46;13.60;;;9.80;;
56039;SDS011;43937;41.366;2.072;2023-12-29T01:02:12;15.95;;;9.80;;
56039;SDS011;43937;41.366;2.072;2023-12-29T01:04:37;16.52;;;10.05;;
56039;SDS011;43937;41.366;2.072;2023-12-29T01:07:04;17.67;;;10.65;;
56039;SDS011;43937;41.366;2.072;2023-12-29T01:09:30;19.98;;;11.25;;
56039;SDS011;43937;41.366;2.072;2023-12-29T01:11:55;15.98;;;10.45;;
56039;SDS011;43937;41.366;2.072;2023-12-29T01:14:21;15.52;;;10.30;;
56039;SDS011;43937;41.366;2.072;2023-12-29T01:16:46;15.95;;;10.13;;
56039;SDS011;43937;41.366;2.072;2023-12-29T01:19:12;15.50;;;9.85;;
56039;SDS011;43937;41.366;2.072;2023-12-29T01:21:37;15.63;;;9.70;;
56039;SDS011;43937;41.366;2.072;2023-12-29T01:24:03;15.55;;;10.07;;
56039;SDS011;43937;41.366;2.072;2023-12-29T01:26:30;13.13;;;9.98;;
56039;SDS011;43937;41.366;2.072;2023-12-29T01:28:55;18.00;;;10.05;;
56039;SDS011;43937;41.366;2.072;2023-12-29T01:31:28;16.95;;;10.18;;
56039;SDS011;43937;41.366;2.072;2023-12-29T01:33:54;17.73;;;9.95;;
56039;SDS011;43937;41.366;2.072;2023-12-29T01:36:20;15.48;;;10.00;;
56039;SDS011;43937;41.366;2.072;2023-12-29T01:38:45;15.48;;;9.77;;
56039;SDS011;43937;41.366;2.072;2023-12-29T01:41:11;13.98;;;9.85;;
56039;SDS011;43937;41.366;2.072;2023-12-29T01:43:36;13.05;;;9.38;;
56039;SDS011;43937;41.366;2.072;2023-12-29T01:46:22;13.88;;;9.23;;
56039;SDS011;43937;41.366;2.072;2023-12-29T01:48:48;14.25;;;9.50;;
56039;SDS011;43937;41.366;2.072;2023-12-29T01:51:14;14.00;;;9.45;;
56039;SDS011;43937;41.366;2.072;2023-12-29T01:53:41;15.18;;;9.65;;
56039;SDS011;43937;41.366;2.072;2023-12-29T01:56:07;14.30;;;9.30;;
56039;SDS011;43937;41.366;2.072;2023-12-29T01:58:33;15.82;;;9.32;;
56039;SDS011;43937;41.366;2.072;2023-12-29T02:01:00;14.35;;;9.25;;
56039;SDS011;43937;41.366;2.072;2023-12-29T02:03:26;12.82;;;9.73;;
56039;SDS011;43937;41.366;2.072;2023-12-29T02:05:52;14.55;;;9.40;;
56039;SDS011;43937;41.366;2.072;2023-12-29T02:08:21;15.35;;;9.48;;
56039;SDS011;43937;41.366;2.072;2023-12-29T02:10:47;14.95;;;9.70;;
56039;SDS011;43937;41.366;2.072;2023-12-29T02:13:13;15.80;;;10.15;;
56039;SDS011;43937;41.366;2.072;2023-12-29T02:15:38;14.48;;;9.45;;
56039;SDS011;43937;41.366;2.072;2023-12-29T02:18:05;15.15;;;9.70;;
56039;SDS011;43937;41.366;2.072;2023-12-29T02:20:32;17.60;;;9.80;;
56039;SDS011;43937;41.366;2.072;2023-12-29T02:22:58;14.68;;;9.98;;
56039;SDS011;43937;41.366;2.072;2023-12-29T02:25:25;13.75;;;8.95;;
56039;SDS011;43937;41.366;2.072;2023-12-29T02:31:06;15.55;;;9.68;;
56039;SDS011;43937;41.366;2.072;2023-12-29T02:33:38;14.90;;;9.65;;
56039;SDS011;43937;41.366;2.072;2023-12-29T02:36:06;13.10;;;9.43;;
56039;SDS011;43937;41.366;2.072;2023-12-29T02:38:32;13.30;;;9.32;;
56039;SDS011;43937;41.366;2.072;2023-12-29T02:40:59;15.88;;;10.00;;
56039;SDS011;43937;41.366;2.072;2023-12-29T02:43:24;17.48;;;10.10;;
56039;SDS011;43937;41.366;2.072;2023-12-29T02:45:50;15.05;;;9.80;;
56039;SDS011;43937;41.366;2.072;2023-12-29T02:48:15;13.25;;;8.77;;
56039;SDS011;43937;41.366;2.072;2023-12-29T02:50:41;16.15;;;9.13;;
56039;SDS011;43937;41.366;2.072;2023-12-29T02:53:06;16.77;;;9.70;;
56039;SDS011;43937;41.366;2.072;2023-12-29T02:55:32;16.63;;;9.75;;
56039;SDS011;43937;41.366;2.072;2023-12-29T02:57:58;14.48;;;8.63;;
56039;SDS011;43937;41.366;2.072;2023-12-29T03:00:23;17.58;;;8.57;;
56039;SDS011;43937;41.366;2.072;2023-12-29T03:02:49;11.27;;;8.43;;
56039;SDS011;43937;41.366;2.072;2023-12-29T03:05:14;13.75;;;8.90;;
56039;SDS011;43937;41.366;2.072;2023-12-29T03:07:40;17.05;;;8.60;;
56039;SDS011;43937;41.366;2.072;2023-12-29T03:10:06;11.57;;;8.95;;
56039;SDS011;43937;41.366;2.072;2023-12-29T03:12:32;17.85;;;9.48;;
56039;SDS011;43937;41.366;2.072;2023-12-29T03:14:58;14.73;;;9.50;;
56039;SDS011;43937;41.366;2.072;2023-12-29T03:17:23;14.48;;;9.45;;
56039;SDS011;43937;41.366;2.072;2023-12-29T03:19:48;15.88;;;9.75;;
56039;SDS011;43937;41.366;2.072;2023-12-29T03:22:14;13.18;;;9.70;;
56039;SDS011;43937;41.366;2.072;2023-12-29T03:24:43;14.95;;;9.00;;
56039;SDS011;43937;41.366;2.072;2023-12-29T03:27:09;17.52;;;9.07;;
56039;SDS011;43937;41.366;2.072;2023-12-29T03:29:35;12.85;;;8.48;;
56039;SDS011;43937;41.366;2.072;2023-12-29T03:32:01;13.80;;;9.25;;
56039;SDS011;43937;41.366;2.072;2023-12-29T03:34:26;13.43;;;9.43;;
56039;SDS011;43937;41.366;2.072;2023-12-29T03:36:52;16.05;;;9.52;;
56039;SDS011;43937;41.366;2.072;2023-12-29T03:39:17;17.48;;;9.38;;
56039;SDS011;43937;41.366;2.072;2023-12-29T03:41:43;12.98;;;8.95;;
56039;SDS011;43937;41.366;2.072;2023-12-29T03:44:09;19.88;;;9.35;;
56039;SDS011;43937;41.366;2.072;2023-12-29T03:46:34;13.20;;;8.80;;
56039;SDS011;43937;41.366;2.072;2023-12-29T03:49:00;13.82;;;9.38;;
56039;SDS011;43937;41.366;2.072;2023-12-29T03:51:25;14.88;;;9.27;;
56039;SDS011;43937;41.366;2.072;2023-12-29T03:53:50;18.10;;;9.82;;
56039;SDS011;43937;41.366;2.072;2023-12-29T03:56:17;13.10;;;9.02;;
56039;SDS011;43937;41.366;2.072;2023-12-29T03:58:46;15.00;;;9.20;;
56039;SDS011;43937;41.366;2.072;2023-12-29T04:01:13;14.80;;;8.63;;
56039;SDS011;43937;41.366;2.072;2023-12-29T04:03:39;13.85;;;9.30;;
56039;SDS011;43937;41.366;2.072;2023-12-29T04:06:05;14.05;;;9.35;;
56039;SDS011;43937;41.366;2.072;2023-12-29T04:08:31;14.07;;;9.02;;
56039;SDS011;43937;41.366;2.072;2023-12-29T04:10:57;14.73;;;9.00;;
56039;SDS011;43937;41.366;2.072;2023-12-29T04:13:23;11.88;;;8.32;;
56039;SDS011;43937;41.366;2.072;2023-12-29T04:15:48;14.75;;;8.50;;
56039;SDS011;43937;41.366;2.072;2023-12-29T04:18:14;10.60;;;7.82;;
56039;SDS011;43937;41.366;2.072;2023-12-29T04:20:39;13.00;;;7.90;;
56039;SDS011;43937;41.366;2.072;2023-12-29T04:23:05;10.90;;;7.45;;
56039;SDS011;43937;41.366;2.072;2023-12-29T04:25:32;12.07;;;7.72;;
56039;SDS011;43937;41.366;2.072;2023-12-29T04:28:00;11.60;;;7.53;;
56039;SDS011;43937;41.366;2.072;2023-12-29T04:30:25;10.77;;;7.00;;
56039;SDS011;43937;41.366;2.072;2023-12-29T04:32:51;12.30;;;8.32;;
56039;SDS011;43937;41.366;2.072;2023-12-29T04:35:16;15.50;;;8.75;;
56039;SDS011;43937;41.366;2.072;2023-12-29T04:37:44;10.32;;;8.05;;
56039;SDS011;43937;41.366;2.072;2023-12-29T04:40:14;13.50;;;8.77;;
56039;SDS011;43937;41.366;2.072;2023-12-29T04:42:40;14.50;;;9.18;;
56039;SDS011;43937;41.366;2.072;2023-12-29T04:45:05;19.55;;;9.43;;
56039;SDS011;43937;41.366;2.072;2023-12-29T04:47:32;15.00;;;10.43;;
56039;SDS011;43937;41.366;2.072;2023-12-29T04:49:57;14.80;;;9.63;;
56039;SDS011;43937;41.366;2.072;2023-12-29T04:52:23;13.02;;;9.15;;
56039;SDS011;43937;41.366;2.072;2023-12-29T04:54:48;15.05;;;9.00;;
56039;SDS011;43937;41.366;2.072;2023-12-29T04:57:14;17.17;;;9.43;;
56039;SDS011;43937;41.366;2.072;2023-12-29T04:59:39;13.75;;;8.52;;
56039;SDS011;43937;41.366;2.072;2023-12-29T05:02:05;11.60;;;8.52;;
56039;SDS011;43937;41.366;2.072;2023-12-29T05:04:30;12.43;;;8.48;;
56039;SDS011;43937;41.366;2.072;2023-12-29T05:06:56;18.75;;;8.18;;
56039;SDS011;43937;41.366;2.072;2023-12-29T05:09:21;13.20;;;8.93;;
56039;SDS011;43937;41.366;2.072;2023-12-29T05:11:47;12.35;;;8.27;;
56039;SDS011;43937;41.366;2.072;2023-12-29T05:14:13;12.60;;;8.20;;
56039;SDS011;43937;41.366;2.072;2023-12-29T05:16:38;11.48;;;8.32;;
56039;SDS011;43937;41.366;2.072;2023-12-29T05:19:04;12.02;;;8.43;;
56039;SDS011;43937;41.366;2.072;2023-12-29T05:21:29;13.07;;;8.40;;
56039;SDS011;43937;41.366;2.072;2023-12-29T05:23:56;10.25;;;7.95;;
56039;SDS011;43937;41.366;2.072;2023-12-29T05:26:21;12.70;;;8.50;;
56039;SDS011;43937;41.366;2.072;2023-12-29T05:28:47;13.45;;;8.55;;
56039;SDS011;43937;41.366;2.072;2023-12-29T05:31:12;15.65;;;8.43;;
56039;SDS011;43937;41.366;2.072;2023-12-29T05:33:38;11.52;;;8.80;;
56039;SDS011;43937;41.366;2.072;2023-12-29T05:36:06;11.68;;;8.48;;
56039;SDS011;43937;41.366;2.072;2023-12-29T05:38:33;12.20;;;8.25;;
56039;SDS011;43937;41.366;2.072;2023-12-29T05:41:00;13.23;;;8.10;;
56039;SDS011;43937;41.366;2.072;2023-12-29T05:43:27;11.48;;;8.27;;
56039;SDS011;43937;41.366;2.072;2023-12-29T05:45:53;13.75;;;8.73;;
56039;SDS011;43937;41.366;2.072;2023-12-29T05:48:18;14.68;;;8.63;;
56039;SDS011;43937;41.366;2.072;2023-12-29T05:50:44;11.10;;;7.70;;
56039;SDS011;43937;41.366;2.072;2023-12-29T05:53:09;17.75;;;8.25;;
56039;SDS011;43937;41.366;2.072;2023-12-29T05:55:35;10.70;;;8.68;;
56039;SDS011;43937;41.366;2.072;2023-12-29T05:58:01;11.57;;;8.32;;
56039;SDS011;43937;41.366;2.072;2023-12-29T06:00:26;11.60;;;8.00;;
56039;SDS011;43937;41.366;2.072;2023-12-29T06:02:51;13.90;;;8.50;;
56039;SDS011;43937;41.366;2.072;2023-12-29T06:05:17;12.45;;;7.75;;
56039;SDS011;43937;41.366;2.072;2023-12-29T06:07:42;12.55;;;8.20;;
56039;SDS011;43937;41.366;2.072;2023-12-29T06:10:08;13.50;;;7.95;;
56039;SDS011;43937;41.366;2.072;2023-12-29T06:12:34;12.10;;;8.65;;
56039;SDS011;43937;41.366;2.072;2023-12-29T06:15:00;10.80;;;7.88;;
56039;SDS011;43937;41.366;2.072;2023-12-29T06:17:26;12.10;;;8.32;;
56039;SDS011;43937;41.366;2.072;2023-12-29T06:19:51;14.95;;;9.20;;
56039;SDS011;43937;41.366;2.072;2023-12-29T06:22:17;12.35;;;8.48;;
56039;SDS011;43937;41.366;2.072;2023-12-29T06:24:43;11.30;;;8.10;;
56039;SDS011;43937;41.366;2.072;2023-12-29T06:27:09;15.38;;;9.40;;
56039;SDS011;43937;41.366;2.072;2023-12-29T06:29:35;12.65;;;8.43;;
56039;SDS011;43937;41.366;2.072;2023-12-29T06:32:01;15.52;;;8.27;;
56039;SDS011;43937;41.366;2.072;2023-12-29T06:34:28;10.70;;;7.85;;
56039;SDS011;43937;41.366;2.072;2023-12-29T06:36:53;11.48;;;7.63;;
56039;SDS011;43937;41.366;2.072;2023-12-29T06:39:18;16.58;;;8.30;;
56039;SDS011;43937;41.366;2.072;2023-12-29T06:41:44;21.88;;;8.68;;
56039;SDS011;43937;41.366;2.072;2023-12-29T06:44:09;13.48;;;7.65;;
56039;SDS011;43937;41.366;2.072;2023-12-29T06:46:38;14.48;;;7.50;;
56039;SDS011;43937;41.366;2.072;2023-12-29T06:49:04;10.30;;;7.75;;
56039;SDS011;43937;41.366;2.072;2023-12-29T06:51:31;12.45;;;7.53;;
56039;SDS011;43937;41.366;2.072;2023-12-29T06:53:56;13.25;;;8.30;;
56039;SDS011;43937;41.366;2.072;2023-12-29T06:56:21;15.05;;;7.72;;
56039;SDS011;43937;41.366;2.072;2023-12-29T06:58:47;17.35;;;8.60;;
56039;SDS011;43937;41.366;2.072;2023-12-29T07:01:13;14.25;;;7.82;;
56039;SDS011;43937;41.366;2.072;2023-12-29T07:03:38;12.82;;;8.15;;
56039;SDS011;43937;41.366;2.072;2023-12-29T07:06:04;14.07;;;9.10;;
56039;SDS011;43937;41.366;2.072;2023-12-29T07:08:30;11.55;;;7.88;;
56039;SDS011;43937;41.366;2.072;2023-12-29T07:10:55;12.90;;;8.73;;
56039;SDS011;43937;41.366;2.072;2023-12-29T07:13:21;15.13;;;8.43;;
56039;SDS011;43937;41.366;2.072;2023-12-29T07:15:47;17.42;;;9.23;;
56039;SDS011;43937;41.366;2.072;2023-12-29T07:18:14;13.98;;;8.38;;
56039;SDS011;43937;41.366;2.072;2023-12-29T07:20:40;15.93;;;9.13;;
56039;SDS011;43937;41.366;2.072;2023-12-29T07:23:05;14.32;;;9.00;;
56039;SDS011;43937;41.366;2.072;2023-12-29T07:25:31;16.45;;;9.52;;
56039;SDS011;43937;41.366;2.072;2023-12-29T07:27:56;21.15;;;9.13;;
56039;SDS011;43937;41.366;2.072;2023-12-29T07:30:22;15.30;;;9.23;;
56039;SDS011;43937;41.366;2.072;2023-12-29T07:32:48;15.57;;;9.30;;
56039;SDS011;43937;41.366;2.072;2023-12-29T07:35:13;15.82;;;9.23;;
56039;SDS011;43937;41.366;2.072;2023-12-29T07:37:42;19.45;;;9.55;;
56039;SDS011;43937;41.366;2.072;2023-12-29T07:40:10;14.60;;;9.20;;
56039;SDS011;43937;41.366;2.072;2023-12-29T07:42:35;14.52;;;8.90;;
56039;SDS011;43937;41.366;2.072;2023-12-29T07:45:01;14.55;;;9.07;;
56039;SDS011;43937;41.366;2.072;2023-12-29T07:47:26;14.95;;;9.27;;
56039;SDS011;43937;41.366;2.072;2023-12-29T07:49:52;18.13;;;9.68;;
56039;SDS011;43937;41.366;2.072;2023-12-29T07:52:17;15.07;;;9.10;;
56039;SDS011;43937;41.366;2.072;2023-12-29T07:54:43;16.02;;;9.20;;
56039;SDS011;43937;41.366;2.072;2023-12-29T07:57:08;17.75;;;9.18;;
56039;SDS011;43937;41.366;2.072;2023-12-29T07:59:34;16.50;;;9.00;;
56039;SDS011;43937;41.366;2.072;2023-12-29T08:02:00;15.90;;;9.40;;
56039;SDS011;43937;41.366;2.072;2023-12-29T08:04:25;15.40;;;9.50;;
56039;SDS011;43937;41.366;2.072;2023-12-29T08:06:50;15.35;;;9.80;;
56039;SDS011;43937;41.366;2.072;2023-12-29T08:09:16;22.58;;;9.07;;
56039;SDS011;43937;41.366;2.072;2023-12-29T08:11:41;17.67;;;9.68;;
56039;SDS011;43937;41.366;2.072;2023-12-29T08:14:08;19.83;;;9.30;;
56039;SDS011;43937;41.366;2.072;2023-12-29T08:16:37;14.20;;;8.40;;
56039;SDS011;43937;41.366;2.072;2023-12-29T08:19:04;18.25;;;9.07;;
56039;SDS011;43937;41.366;2.072;2023-12-29T08:21:29;16.00;;;8.73;;
56039;SDS011;43937;41.366;2.072;2023-12-29T08:23:55;107.93;;;17.45;;
56039;SDS011;43937;41.366;2.072;2023-12-29T08:26:20;30.33;;;10.70;;
56039;SDS011;43937;41.366;2.072;2023-12-29T08:28:46;68.93;;;13.85;;
56039;SDS011;43937;41.366;2.072;2023-12-29T08:31:11;98.05;;;16.77;;
56039;SDS011;43937;41.366;2.072;2023-12-29T08:33:37;24.25;;;11.68;;
56039;SDS011;43937;41.366;2.072;2023-12-29T08:36:02;23.17;;;12.38;;
56039;SDS011;43937;41.366;2.072;2023-12-29T08:38:29;39.88;;;13.40;;
56039;SDS011;43937;41.366;2.072;2023-12-29T08:40:55;26.50;;;12.32;;
56039;SDS011;43937;41.366;2.072;2023-12-29T08:43:21;20.40;;;11.95;;
56039;SDS011;43937;41.366;2.072;2023-12-29T08:45:47;24.42;;;12.60;;
56039;SDS011;43937;41.366;2.072;2023-12-29T08:48:13;22.40;;;12.15;;
56039;SDS011;43937;41.366;2.072;2023-12-29T08:50:38;20.42;;;12.00;;
56039;SDS011;43937;41.366;2.072;2023-12-29T08:53:04;27.02;;;12.35;;
56039;SDS011;43937;41.366;2.072;2023-12-29T08:55:29;22.25;;;12.88;;
56039;SDS011;43937;41.366;2.072;2023-12-29T08:57:56;23.13;;;12.32;;
56039;SDS011;43937;41.366;2.072;2023-12-29T09:00:22;46.15;;;14.15;;
56039;SDS011;43937;41.366;2.072;2023-12-29T09:02:47;18.92;;;11.50;;
56039;SDS011;43937;41.366;2.072;2023-12-29T09:05:13;23.13;;;11.23;;
56039;SDS011;43937;41.366;2.072;2023-12-29T09:07:39;24.00;;;14.77;;
56039;SDS011;43937;41.366;2.072;2023-12-29T09:10:04;26.00;;;15.48;;
56039;SDS011;43937;41.366;2.072;2023-12-29T09:12:33;30.25;;;16.08;;
56039;SDS011;43937;41.366;2.072;2023-12-29T09:14:59;26.65;;;14.68;;
56039;SDS011;43937;41.366;2.072;2023-12-29T09:17:25;26.38;;;14.60;;
56039;SDS011;43937;41.366;2.072;2023-12-29T09:19:50;48.47;;;15.70;;
56039;SDS011;43937;41.366;2.072;2023-12-29T09:22:15;46.13;;;14.48;;
56039;SDS011;43937;41.366;2.072;2023-12-29T09:24:41;47.95;;;15.60;;
56039;SDS011;43937;41.366;2.072;2023-12-29T09:27:07;27.05;;;13.60;;
56039;SDS011;43937;41.366;2.072;2023-12-29T09:29:34;63.97;;;15.35;;
56039;SDS011;43937;41.366;2.072;2023-12-29T09:31:59;23.48;;;12.80;;
56039;SDS011;43937;41.366;2.072;2023-12-29T09:34:24;25.25;;;13.40;;
56039;SDS011;43937;41.366;2.072;2023-12-29T09:36:50;23.52;;;14.00;;
56039;SDS011;43937;41.366;2.072;2023-12-29T09:39:15;22.02;;;12.05;;
56039;SDS011;43937;41.366;2.072;2023-12-29T09:41:42;20.70;;;12.55;;
56039;SDS011;43937;41.366;2.072;2023-12-29T09:44:14;19.63;;;11.93;;
56039;SDS011;43937;41.366;2.072;2023-12-29T09:46:41;22.90;;;11.50;;
56039;SDS011;43937;41.366;2.072;2023-12-29T09:49:07;20.42;;;11.23;;
56039;SDS011;43937;41.366;2.072;2023-12-29T09:51:34;24.70;;;12.07;;
56039;SDS011;43937;41.366;2.072;2023-12-29T09:54:02;21.65;;;12.15;;
56039;SDS011;43937;41.366;2.072;2023-12-29T09:56:28;32.00;;;11.23;;
56039;SDS011;43937;41.366;2.072;2023-12-29T09:58:54;19.38;;;11.23;;
56039;SDS011;43937;41.366;2.072;2023-12-29T10:01:21;20.48;;;10.85;;
56039;SDS011;43937;41.366;2.072;2023-12-29T10:03:48;22.33;;;10.75;;
56039;SDS011;43937;41.366;2.072;2023-12-29T10:06:16;19.75;;;10.60;;
56039;SDS011;43937;41.366;2.072;2023-12-29T10:08:48;16.98;;;10.25;;
56039;SDS011;43937;41.366;2.072;2023-12-29T10:11:15;17.60;;;10.88;;
56039;SDS011;43937;41.366;2.072;2023-12-29T10:13:44;27.58;;;11.65;;
56039;SDS011;43937;41.366;2.072;2023-12-29T10:16:15;284.38;;;28.45;;
56039;SDS011;43937;41.366;2.072;2023-12-29T10:21:48;23.08;;;12.98;;
56039;SDS011;43937;41.366;2.072;2023-12-29T10:24:23;26.13;;;13.25;;
56039;SDS011;43937;41.366;2.072;2023-12-29T10:26:49;22.50;;;11.00;;
56039;SDS011;43937;41.366;2.072;2023-12-29T10:29:15;20.05;;;11.95;;
56039;SDS011;43937;41.366;2.072;2023-12-29T10:31:41;20.15;;;11.18;;
56039;SDS011;43937;41.366;2.072;2023-12-29T10:36:59;20.98;;;11.57;;
56039;SDS011;43937;41.366;2.072;2023-12-29T10:39:33;26.50;;;12.10;;
56039;SDS011;43937;41.366;2.072;2023-12-29T10:42:06;24.90;;;11.75;;
56039;SDS011;43937;41.366;2.072;2023-12-29T10:44:34;21.83;;;12.27;;
56039;SDS011;43937;41.366;2.072;2023-12-29T10:47:09;19.98;;;12.20;;
56039;SDS011;43937;41.366;2.072;2023-12-29T10:49:36;18.73;;;11.60;;
56039;SDS011;43937;41.366;2.072;2023-12-29T10:52:14;16.42;;;11.38;;
56039;SDS011;43937;41.366;2.072;2023-12-29T10:54:40;27.35;;;11.07;;
56039;SDS011;43937;41.366;2.072;2023-12-29T10:57:07;18.13;;;11.02;;
56039;SDS011;43937;41.366;2.072;2023-12-29T10:59:34;20.65;;;11.02;;
56039;SDS011;43937;41.366;2.072;2023-12-29T11:02:00;19.73;;;11.05;;
56039;SDS011;43937;41.366;2.072;2023-12-29T11:04:28;27.42;;;12.07;;
56039;SDS011;43937;41.366;2.072;2023-12-29T11:06:54;29.40;;;11.63;;
56039;SDS011;43937;41.366;2.072;2023-12-29T11:09:33;27.25;;;11.20;;
56039;SDS011;43937;41.366;2.072;2023-12-29T11:12:03;23.38;;;10.55;;
56039;SDS011;43937;41.366;2.072;2023-12-29T11:14:32;26.88;;;9.18;;
56039;SDS011;43937;41.366;2.072;2023-12-29T11:16:58;21.42;;;10.50;;
56039;SDS011;43937;41.366;2.072;2023-12-29T11:19:25;21.58;;;9.70;;
56039;SDS011;43937;41.366;2.072;2023-12-29T11:21:52;19.58;;;10.48;;
56039;SDS011;43937;41.366;2.072;2023-12-29T11:24:21;19.88;;;9.93;;
56039;SDS011;43937;41.366;2.072;2023-12-29T11:26:50;19.42;;;9.90;;
56039;SDS011;43937;41.366;2.072;2023-12-29T11:29:16;17.52;;;10.23;;
56039;SDS011;43937;41.366;2.072;2023-12-29T11:31:42;24.13;;;10.30;;
56039;SDS011;43937;41.366;2.072;2023-12-29T11:34:21;15.38;;;9.43;;
56039;SDS011;43937;41.366;2.072;2023-12-29T11:36:51;18.60;;;8.70;;
56039;SDS011;43937;41.366;2.072;2023-12-29T11:44:42;34.67;;;11.00;;
56039;SDS011;43937;41.366;2.072;2023-12-29T11:47:55;20.60;;;9.98;;
56039;SDS011;43937;41.366;2.072;2023-12-29T11:49:59;18.48;;;10.27;;
56039;SDS011;43937;41.366;2.072;2023-12-29T11:52:32;20.67;;;10.65;;
56039;SDS011;43937;41.366;2.072;2023-12-29T11:55:08;21.42;;;10.02;;
56039;SDS011;43937;41.366;2.072;2023-12-29T11:57:38;50.83;;;35.92;;
56039;SDS011;43937;41.366;2.072;2023-12-29T12:00:05;20.35;;;10.13;;
56039;SDS011;43937;41.366;2.072;2023-12-29T12:02:32;22.33;;;10.10;;
56039;SDS011;43937;41.366;2.072;2023-12-29T12:04:57;18.42;;;10.15;;
56039;SDS011;43937;41.366;2.072;2023-12-29T12:09:49;27.83;;;14.02;;
56039;SDS011;43937;41.366;2.072;2023-12-29T12:13:01;21.52;;;10.98;;
56039;SDS011;43937;41.366;2.072;2023-12-29T12:17:51;27.92;;;13.88;;
56039;SDS011;43937;41.366;2.072;2023-12-29T12:20:17;29.50;;;11.68;;
56039;SDS011;43937;41.366;2.072;2023-12-29T12:22:43;57.55;;;13.60;;
56039;SDS011;43937;41.366;2.072;2023-12-29T12:25:11;25.15;;;11.13;;
56039;SDS011;43937;41.366;2.072;2023-12-29T12:27:37;25.77;;;11.80;;
56039;SDS011;43937;41.366;2.072;2023-12-29T12:30:03;31.67;;;11.65;;
56039;SDS011;43937;41.366;2.072;2023-12-29T12:32:30;21.83;;;11.68;;
56039;SDS011;43937;41.366;2.072;2023-12-29T12:34:56;21.70;;;11.52;;
56039;SDS011;43937;41.366;2.072;2023-12-29T12:37:30;20.02;;;11.77;;
56039;SDS011;43937;41.366;2.072;2023-12-29T12:39:55;32.47;;;12.02;;
56039;SDS011;43937;41.366;2.072;2023-12-29T12:42:21;26.88;;;12.07;;
56039;SDS011;43937;41.366;2.072;2023-12-29T12:47:34;29.15;;;12.25;;
56039;SDS011;43937;41.366;2.072;2023-12-29T12:50:02;29.83;;;12.77;;
56039;SDS011;43937;41.366;2.072;2023-12-29T12:52:33;35.17;;;12.63;;
56039;SDS011;43937;41.366;2.072;2023-12-29T12:55:01;20.42;;;11.60;;
56039;SDS011;43937;41.366;2.072;2023-12-29T12:57:27;23.45;;;11.43;;
56039;SDS011;43937;41.366;2.072;2023-12-29T12:59:53;25.02;;;11.27;;
56039;SDS011;43937;41.366;2.072;2023-12-29T13:02:19;21.88;;;11.00;;
56039;SDS011;43937;41.366;2.072;2023-12-29T13:04:46;23.52;;;11.23;;
56039;SDS011;43937;41.366;2.072;2023-12-29T13:07:16;26.20;;;10.77;;
56039;SDS011;43937;41.366;2.072;2023-12-29T13:09:43;17.25;;;9.82;;
56039;SDS011;43937;41.366;2.072;2023-12-29T13:12:13;18.55;;;9.90;;
56039;SDS011;43937;41.366;2.072;2023-12-29T13:14:41;22.48;;;10.13;;
56039;SDS011;43937;41.366;2.072;2023-12-29T13:17:10;20.73;;;9.95;;
56039;SDS011;43937;41.366;2.072;2023-12-29T13:19:39;20.75;;;10.15;;
56039;SDS011;43937;41.366;2.072;2023-12-29T13:22:06;25.63;;;10.82;;
56039;SDS011;43937;41.366;2.072;2023-12-29T13:24:36;18.38;;;8.32;;
56039;SDS011;43937;41.366;2.072;2023-12-29T13:27:08;17.33;;;8.32;;
56039;SDS011;43937;41.366;2.072;2023-12-29T13:29:34;16.73;;;8.93;;
56039;SDS011;43937;41.366;2.072;2023-12-29T13:32:20;19.58;;;8.85;;
56039;SDS011;43937;41.366;2.072;2023-12-29T13:37:34;16.27;;;8.18;;
56039;SDS011;43937;41.366;2.072;2023-12-29T13:42:32;19.02;;;8.82;;
56039;SDS011;43937;41.366;2.072;2023-12-29T13:44:59;15.25;;;9.25;;
56039;SDS011;43937;41.366;2.072;2023-12-29T13:47:26;27.58;;;9.65;;
56039;SDS011;43937;41.366;2.072;2023-12-29T13:49:52;18.67;;;9.68;;
56039;SDS011;43937;41.366;2.072;2023-12-29T13:52:21;24.77;;;9.23;;
56039;SDS011;43937;41.366;2.072;2023-12-29T13:54:46;17.55;;;10.50;;
56039;SDS011;43937;41.366;2.072;2023-12-29T13:57:12;17.27;;;10.05;;
56039;SDS011;43937;41.366;2.072;2023-12-29T13:59:37;23.25;;;10.77;;
56039;SDS011;43937;41.366;2.072;2023-12-29T14:02:22;17.30;;;10.30;;
56039;SDS011;43937;41.366;2.072;2023-12-29T14:05:11;19.10;;;11.95;;
56039;SDS011;43937;41.366;2.072;2023-12-29T14:07:47;24.15;;;14.20;;
56039;SDS011;43937;41.366;2.072;2023-12-29T14:10:17;27.92;;;16.73;;
56039;SDS011;43937;41.366;2.072;2023-12-29T14:12:43;23.63;;;17.27;;
56039;SDS011;43937;41.366;2.072;2023-12-29T14:15:09;43.47;;;19.17;;
56039;SDS011;43937;41.366;2.072;2023-12-29T14:17:35;26.02;;;18.02;;
56039;SDS011;43937;41.366;2.072;2023-12-29T14:20:03;26.90;;;18.83;;
56039;SDS011;43937;41.366;2.072;2023-12-29T14:22:32;30.55;;;20.92;;
56039;SDS011;43937;41.366;2.072;2023-12-29T14:25:04;27.15;;;20.23;;
56039;SDS011;43937;41.366;2.072;2023-12-29T14:27:31;31.27;;;20.92;;
56039;SDS011;43937;41.366;2.072;2023-12-29T14:29:56;31.08;;;22.63;;
56039;SDS011;43937;41.366;2.072;2023-12-29T14:32:23;37.28;;;20.52;;
56039;SDS011;43937;41.366;2.072;2023-12-29T14:34:49;34.67;;;21.40;;
56039;SDS011;43937;41.366;2.072;2023-12-29T14:37:21;32.78;;;22.48;;
56039;SDS011;43937;41.366;2.072;2023-12-29T14:39:50;29.73;;;20.63;;
56039;SDS011;43937;41.366;2.072;2023-12-29T14:42:16;30.65;;;20.73;;
56039;SDS011;43937;41.366;2.072;2023-12-29T14:44:42;33.70;;;22.60;;
56039;SDS011;43937;41.366;2.072;2023-12-29T14:47:10;29.45;;;19.45;;
56039;SDS011;43937;41.366;2.072;2023-12-29T14:49:37;30.20;;;21.52;;
56039;SDS011;43937;41.366;2.072;2023-12-29T14:52:03;30.85;;;21.17;;
56039;SDS011;43937;41.366;2.072;2023-12-29T14:54:28;32.42;;;21.15;;